EDT,Max TemperatureF,Mean TemperatureF,Min TemperatureF,Max Dew PointF,MeanDew PointF,Min DewpointF,Max Humidity, Mean Humidity, Min Humidity, Max Sea Level PressureIn, Mean Sea Level PressureIn, Min Sea Level PressureIn, Max VisibilityMiles, Mean VisibilityMiles, Min VisibilityMiles, Max Wind SpeedMPH, Mean Wind SpeedMPH, Max Gust SpeedMPH,PrecipitationIn, CloudCover, Events, WindDirDegrees
2012-10-1,64,52,39,48,43,37,100,79,53,29.96,29.91,29.83,10,7,0,9,2,,0.00,1,Fog,64
2012-10-2,63,58,53,54,51,46,87,75,63,29.90,29.85,29.80,10,10,8,15,7,18,0.03,8,Rain,50
2012-10-3,61,58,55,58,55,51,94,88,81,30.06,29.97,29.90,10,5,2,12,5,,0.05,8,Rain,163
2012-10-4,79,66,55,56,53,50,87,66,39,30.12,30.06,30.01,10,10,8,17,10,26,0.00,4,Rain,216
2012-10-5,59,51,41,54,44,37,89,82,71,30.13,30.09,30.04,10,10,7,16,11,,0.11,7,Rain,253
2012-10-6,48,40,35,36,33,29,86,72,59,30.16,30.10,30.03,10,10,10,16,8,21,0.00,5,,253
2012-10-7,46,42,36,39,37,33,89,80,71,30.19,30.14,30.10,10,10,4,16,6,,0.07,8,Rain,260
2012-10-8,57,42,30,32,28,25,89,60,33,30.23,30.17,30.10,10,10,10,14,6,20,0.00,0,,188
2012-10-9,64,52,41,39,35,29,67,53,37,30.10,29.99,29.84,10,10,10,20,11,30,0.00,0,,196
2012-10-10,51,44,36,45,36,26,89,75,44,30.20,30.00,29.86,10,9,6,24,13,32,0.23,6,Rain,268
2012-10-11,64,48,34,36,31,28,79,58,32,30.22,30.17,30.09,10,10,10,24,8,31,0.00,0,,214
2012-10-12,54,44,35,41,32,25,86,64,34,30.45,30.36,30.22,10,10,10,15,9,20,0.00,3,,43
2012-10-13,66,52,39,61,45,27,90,74,57,30.34,30.08,29.90,10,8,2,18,10,28,0.34,5,Rain,168
2012-10-14,73,62,51,62,57,48,89,79,59,29.86,29.64,29.49,10,9,2,29,18,46,0.12,7,Rain-Thunderstorm,205
2012-10-15,52,44,37,48,44,35,93,84,63,29.99,29.83,29.71,10,9,3,20,12,25,0.01,7,Rain,277
2012-10-16,64,48,32,43,36,30,96,75,45,30.00,29.90,29.68,10,7,1,17,3,23,0.00,1,,155
2012-10-17,73,64,57,54,49,44,88,65,38,29.68,29.59,29.44,10,10,4,26,16,33,0.36,5,Rain-Thunderstorm,173
2012-10-18,60,53,46,54,44,30,89,73,37,29.63,29.46,29.32,10,9,5,25,17,38,0.36,6,Rain,213
2012-10-19,51,48,44,46,44,41,93,88,80,29.62,29.54,29.50,10,9,2,16,8,22,0.57,8,Rain,199
2012-10-20,55,48,42,45,42,40,93,83,59,29.95,29.74,29.61,10,8,4,16,9,22,0.04,7,Rain,242
2012-10-21,64,50,37,47,42,36,93,76,52,30.11,30.05,29.96,10,9,3,10,5,,0.00,0,,159
2012-10-22,69,60,50,60,53,45,90,75,58,30.05,30.00,29.93,10,10,8,16,7,,0.03,5,Rain-Thunderstorm,162
2012-10-23,66,62,59,61,57,54,90,81,70,29.99,29.95,29.91,10,10,8,15,9,23,0.00,6,Rain,194
2012-10-24,78,70,61,60,57,55,86,69,54,30.01,29.97,29.93,10,10,10,13,8,,0.00,2,,182
2012-10-25,77,69,60,58,55,53,78,63,52,29.95,29.88,29.80,10,10,10,24,13,34,0.00,2,,186
2012-10-26,53,44,39,45,37,32,87,71,54,30.27,30.17,29.99,10,9,4,21,14,26,0.11,4,Rain,333
2012-10-27,52,43,34,34,30,28,82,65,41,30.27,30.23,30.17,10,10,10,16,10,16,0.00,0,,358
2012-10-28,48,40,34,33,30,26,85,66,51,30.25,30.21,30.18,10,10,10,18,10,,0.00,2,,9
2012-10-29,48,42,36,27,24,19,67,51,34,30.19,30.10,29.88,10,10,10,26,15,37,0.00,0,,343
2012-10-30,42,40,39,36,32,22,86,74,47,29.84,29.68,29.62,10,10,10,29,22,38,0.14,7,Rain,333
2012-10-31,44,42,39,38,36,33,87,80,68,29.79,29.71,29.64,10,9,2,22,16,30,0.03,8,Rain,313